Time;durP1;ratioP1;P1;durP2;ratioP2;P2;SDS_P1;SDS_P2;PMS_P1;PMS_P2;Temp;Humidity;BMP_temperature;BMP_pressure;BME280_temperature;BME280_humidity;BME280_pressure;Samples;Min_cycle;Max_cycle;Signal;HPM_P1;HPM_P2
2022/06/30 00:00:16;;;;;;;26.23;18.33;;;;;;;;;;4954032;28;20293;-64
2022/06/30 00:02:42;;;;;;;25.58;19.77;;;;;;;;;;4953592;29;20194;-65
2022/06/30 00:05:08;;;;;;;31.35;21.95;;;;;;;;;;4954927;29;20196;-64
2022/06/30 00:07:34;;;;;;;27.33;20.88;;;;;;;;;;4954682;29;20544;-62
2022/06/30 00:10:01;;;;;;;28.30;20.92;;;;;;;;;;4953246;28;20273;-65
2022/06/30 00:12:27;;;;;;;29.60;20.95;;;;;;;;;;4954903;29;20549;-64
2022/06/30 00:14:53;;;;;;;27.90;20.38;;;;;;;;;;4954137;29;20242;-64
2022/06/30 00:17:19;;;;;;;32.85;20.83;;;;;;;;;;4954780;29;20269;-64
2022/06/30 00:19:46;;;;;;;34.10;21.00;;;;;;;;;;4953295;28;20187;-64
2022/06/30 00:22:13;;;;;;;28.90;21.58;;;;;;;;;;4937474;29;20178;-64
2022/06/30 00:24:39;;;;;;;26.42;20.63;;;;;;;;;;4954410;29;20175;-64
2022/06/30 00:27:06;;;;;;;30.70;20.10;;;;;;;;;;4954976;29;20223;-64
2022/06/30 00:29:32;;;;;;;28.33;20.77;;;;;;;;;;4936915;29;20198;-64
2022/06/30 00:31:58;;;;;;;30.45;21.38;;;;;;;;;;4954417;29;20712;-64
2022/06/30 00:34:28;;;;;;;38.97;23.63;;;;;;;;;;4954013;29;20192;-64
2022/06/30 00:36:55;;;;;;;30.38;23.30;;;;;;;;;;4954303;29;20193;-64
2022/06/30 00:39:22;;;;;;;30.92;22.85;;;;;;;;;;4953687;28;20199;-64
2022/06/30 00:41:48;;;;;;;31.60;23.77;;;;;;;;;;4954679;29;20665;-64
2022/06/30 00:44:14;;;;;;;32.58;23.48;;;;;;;;;;4954708;29;20183;-64
2022/06/30 00:46:40;;;;;;;31.67;23.38;;;;;;;;;;4954447;29;20182;-64
2022/06/30 00:49:07;;;;;;;30.52;24.55;;;;;;;;;;4935858;28;20558;-64
2022/06/30 00:51:33;;;;;;;32.95;25.58;;;;;;;;;;4937317;29;20225;-64
2022/06/30 00:54:01;;;;;;;39.47;27.00;;;;;;;;;;4954618;29;20182;-64
2022/06/30 00:56:28;;;;;;;35.63;27.05;;;;;;;;;;4954389;29;20182;-65
2022/06/30 00:58:56;;;;;;;39.03;28.33;;;;;;;;;;4954062;28;20269;-64
2022/06/30 01:01:22;;;;;;;41.30;27.98;;;;;;;;;;4954025;29;20191;-64
2022/06/30 01:03:49;;;;;;;39.08;27.80;;;;;;;;;;4953617;29;20191;-64
2022/06/30 01:06:15;;;;;;;37.83;29.00;;;;;;;;;;4954287;29;20645;-64
2022/06/30 01:08:41;;;;;;;39.90;29.40;;;;;;;;;;4951921;28;20245;-64
2022/06/30 01:13:52;;;;;;;38.75;27.83;;;;;;;;;;4951423;28;20539;-64
2022/06/30 01:16:22;;;;;;;39.40;29.02;;;;;;;;;;4958278;29;20190;-64
2022/06/30 01:18:48;;;;;;;40.20;29.50;;;;;;;;;;4939988;29;20583;-64
2022/06/30 01:21:15;;;;;;;36.15;28.63;;;;;;;;;;4957938;29;20179;-64
2022/06/30 01:23:41;;;;;;;39.55;28.40;;;;;;;;;;4941382;29;20187;-64
2022/06/30 01:26:07;;;;;;;36.47;28.65;;;;;;;;;;4957647;29;20193;-64
2022/06/30 01:28:33;;;;;;;37.33;28.55;;;;;;;;;;4940226;29;20190;-64
2022/06/30 01:30:59;;;;;;;41.30;28.33;;;;;;;;;;4957755;29;20206;-65
2022/06/30 01:33:25;;;;;;;41.00;30.38;;;;;;;;;;4956809;29;20212;-64
2022/06/30 01:35:52;;;;;;;37.35;30.70;;;;;;;;;;4957429;29;20233;-65
2022/06/30 01:38:19;;;;;;;39.08;31.33;;;;;;;;;;4956756;28;20200;-65
2022/06/30 01:40:46;;;;;;;39.00;30.75;;;;;;;;;;4957196;28;20737;-65
2022/06/30 01:43:13;;;;;;;45.63;32.10;;;;;;;;;;4957491;29;20185;-64
2022/06/30 01:45:40;;;;;;;48.72;32.70;;;;;;;;;;4940337;29;20195;-64
2022/06/30 01:48:07;;;;;;;43.50;33.88;;;;;;;;;;4956222;28;20262;-65
2022/06/30 01:50:33;;;;;;;48.90;34.50;;;;;;;;;;4957520;29;20248;-64
2022/06/30 01:53:00;;;;;;;44.75;34.70;;;;;;;;;;4957419;29;20214;-65
2022/06/30 01:55:27;;;;;;;48.83;35.17;;;;;;;;;;4939624;29;20182;-65
2022/06/30 01:57:53;;;;;;;45.70;34.63;;;;;;;;;;4955453;28;20186;-64
2022/06/30 02:00:20;;;;;;;46.25;34.35;;;;;;;;;;4940129;29;20191;-66
2022/06/30 02:02:48;;;;;;;40.92;33.65;;;;;;;;;;4956280;29;20187;-64
2022/06/30 02:05:14;;;;;;;43.97;34.22;;;;;;;;;;4940166;29;20269;-64
2022/06/30 02:07:41;;;;;;;47.17;35.88;;;;;;;;;;4955757;28;20192;-63
2022/06/30 02:10:08;;;;;;;50.17;34.40;;;;;;;;;;4956990;29;20214;-65
2022/06/30 02:12:47;;;;;;;45.92;33.90;;;;;;;;;;4930337;29;20203;-65
2022/06/30 02:15:14;;;;;;;46.10;35.03;;;;;;;;;;4956208;29;20194;-64
2022/06/30 02:17:41;;;;;;;48.97;36.40;;;;;;;;;;4956998;29;20286;-64
2022/06/30 02:20:08;;;;;;;48.72;35.35;;;;;;;;;;4938793;29;20193;-65
2022/06/30 02:22:39;;;;;;;51.70;33.03;;;;;;;;;;4940356;29;20650;-65
2022/06/30 02:25:06;;;;;;;41.28;31.75;;;;;;;;;;4954028;28;20179;-65
2022/06/30 02:27:32;;;;;;;39.65;31.10;;;;;;;;;;4956092;28;20189;-66
2022/06/30 02:29:58;;;;;;;40.35;29.05;;;;;;;;;;4956309;29;20193;-66
2022/06/30 02:32:25;;;;;;;39.47;30.48;;;;;;;;;;4956143;29;20186;-65
2022/06/30 02:34:51;;;;;;;38.55;29.95;;;;;;;;;;4936759;28;20646;-66
2022/06/30 02:37:17;;;;;;;37.17;29.63;;;;;;;;;;4955012;28;20285;-65
2022/06/30 02:39:44;;;;;;;41.28;28.83;;;;;;;;;;4955937;28;20285;-66
2022/06/30 02:42:10;;;;;;;38.08;29.40;;;;;;;;;;4956461;29;20217;-65
2022/06/30 02:44:36;;;;;;;37.88;29.35;;;;;;;;;;4955219;28;20218;-66
2022/06/30 02:47:03;;;;;;;48.90;29.27;;;;;;;;;;4956319;29;20187;-65
2022/06/30 02:49:29;;;;;;;41.58;29.30;;;;;;;;;;4955933;29;20266;-65
2022/06/30 02:51:55;;;;;;;39.17;29.00;;;;;;;;;;4956189;29;20619;-66
2022/06/30 02:54:21;;;;;;;39.80;29.60;;;;;;;;;;4954177;28;20179;-65
2022/06/30 02:56:49;;;;;;;40.35;29.48;;;;;;;;;;4955858;29;20183;-66
2022/06/30 02:59:15;;;;;;;40.20;29.67;;;;;;;;;;4955981;29;20178;-65
2022/06/30 03:01:41;;;;;;;41.55;27.05;;;;;;;;;;4955979;29;20189;-65
2022/06/30 03:04:07;;;;;;;34.60;27.50;;;;;;;;;;4937128;29;20261;-65
2022/06/30 03:06:34;;;;;;;40.88;28.15;;;;;;;;;;4955970;29;20242;-65
2022/06/30 03:09:01;;;;;;;39.30;28.60;;;;;;;;;;4955397;28;20237;-66
2022/06/30 03:11:27;;;;;;;37.10;27.15;;;;;;;;;;4955005;29;20206;-65
2022/06/30 03:13:53;;;;;;;34.58;27.60;;;;;;;;;;4954035;28;20253;-65
2022/06/30 03:16:20;;;;;;;35.25;27.13;;;;;;;;;;4955749;28;20546;-64
2022/06/30 03:18:46;;;;;;;40.05;28.92;;;;;;;;;;4956156;29;20534;-66
2022/06/30 03:21:13;;;;;;;36.00;27.77;;;;;;;;;;4954997;29;20195;-66
2022/06/30 03:23:39;;;;;;;35.05;27.80;;;;;;;;;;4954219;28;20182;-65
2022/06/30 03:26:05;;;;;;;33.72;27.65;;;;;;;;;;4955494;29;20262;-65
2022/06/30 03:28:32;;;;;;;35.70;27.05;;;;;;;;;;4955527;29;20195;-65
2022/06/30 03:30:58;;;;;;;37.75;28.88;;;;;;;;;;4937984;29;20246;-65
2022/06/30 03:33:25;;;;;;;37.83;29.08;;;;;;;;;;4952148;28;20206;-66
2022/06/30 03:35:52;;;;;;;39.80;29.33;;;;;;;;;;4955236;29;20186;-65
2022/06/30 03:38:18;;;;;;;40.83;29.98;;;;;;;;;;4955240;29;20197;-64
2022/06/30 03:40:44;;;;;;;40.53;29.90;;;;;;;;;;4955145;29;20186;-64
2022/06/30 03:43:10;;;;;;;40.53;30.30;;;;;;;;;;4955289;29;20661;-64
2022/06/30 03:45:36;;;;;;;41.53;29.33;;;;;;;;;;4953585;28;20616;-65
2022/06/30 03:48:06;;;;;;;38.38;27.67;;;;;;;;;;4955069;29;20214;-66
2022/06/30 03:50:33;;;;;;;34.70;28.02;;;;;;;;;;4954787;29;20214;-65
2022/06/30 03:52:59;;;;;;;37.80;27.80;;;;;;;;;;4954360;28;20194;-65
2022/06/30 03:55:26;;;;;;;38.40;27.38;;;;;;;;;;4954823;29;20284;-65
2022/06/30 03:57:52;;;;;;;36.78;27.25;;;;;;;;;;4955069;29;20175;-65
2022/06/30 04:00:18;;;;;;;39.65;27.58;;;;;;;;;;4952841;29;20693;-65
2022/06/30 04:02:45;;;;;;;35.72;28.80;;;;;;;;;;4946561;28;20176;-64
2022/06/30 04:05:11;;;;;;;38.75;27.52;;;;;;;;;;4929625;29;20542;-64
2022/06/30 04:07:44;;;;;;;37.17;28.05;;;;;;;;;;4954759;29;20634;-64
2022/06/30 04:10:11;;;;;;;34.97;28.85;;;;;;;;;;4937629;29;20720;-65
2022/06/30 04:12:37;;;;;;;38.88;28.10;;;;;;;;;;4953176;28;20201;-65
2022/06/30 04:15:04;;;;;;;36.10;27.75;;;;;;;;;;4938117;29;20198;-65
2022/06/30 04:17:33;;;;;;;41.50;27.42;;;;;;;;;;4954791;29;20217;-65
2022/06/30 04:20:03;;;;;;;34.35;27.65;;;;;;;;;;4954764;29;20183;-65
2022/06/30 04:22:29;;;;;;;35.53;26.05;;;;;;;;;;4953144;28;20206;-65
2022/06/30 04:24:55;;;;;;;32.40;26.33;;;;;;;;;;4954525;29;20238;-65
2022/06/30 04:27:22;;;;;;;36.47;26.08;;;;;;;;;;4954835;29;20198;-65
2022/06/30 04:29:48;;;;;;;32.85;24.70;;;;;;;;;;4954558;29;20193;-65
2022/06/30 04:34:59;;;;;;;35.67;25.88;;;;;;;;;;4952676;28;20266;-65
2022/06/30 04:37:25;;;;;;;37.28;26.23;;;;;;;;;;4950728;29;20214;-65
2022/06/30 04:41:23;;;;;;;38.33;26.45;;;;;;;;;;4954468;29;20638;-65
2022/06/30 04:42:37;;;;;;;36.50;27.23;;;;;;;;;;4955383;28;20214;-65
2022/06/30 04:45:03;;;;;;;35.80;27.75;;;;;;;;;;4940274;29;20259;-65
2022/06/30 04:47:29;;;;;;;34.53;27.27;;;;;;;;;;4956699;28;20194;-66
2022/06/30 04:49:56;;;;;;;37.78;27.63;;;;;;;;;;4941136;29;20185;-65
2022/06/30 04:52:22;;;;;;;32.97;25.23;;;;;;;;;;4941207;29;20217;-64
2022/06/30 04:54:48;;;;;;;35.33;25.60;;;;;;;;;;4957246;28;20205;-65
2022/06/30 04:57:14;;;;;;;33.42;24.35;;;;;;;;;;4956251;28;20617;-64
2022/06/30 04:59:40;;;;;;;28.63;24.55;;;;;;;;;;4939994;29;20182;-64
2022/06/30 05:02:06;;;;;;;32.35;23.38;;;;;;;;;;4954581;28;20722;-64
2022/06/30 05:04:32;;;;;;;35.63;23.95;;;;;;;;;;4939608;28;20214;-64
2022/06/30 05:06:58;;;;;;;35.65;23.85;;;;;;;;;;4940869;29;20198;-65
2022/06/30 05:09:24;;;;;;;29.73;22.95;;;;;;;;;;4958051;29;20234;-63
2022/06/30 05:11:51;;;;;;;28.95;20.08;;;;;;;;;;4940225;29;20276;-65
2022/06/30 05:14:18;;;;;;;24.73;16.95;;;;;;;;;;4941177;29;20194;-65
2022/06/30 05:16:44;;;;;;;21.45;14.85;;;;;;;;;;4956918;28;20182;-65
2022/06/30 05:19:10;;;;;;;26.10;13.20;;;;;;;;;;4938620;29;20193;-66
2022/06/30 05:21:36;;;;;;;32.55;13.30;;;;;;;;;;4957197;29;20186;-65
2022/06/30 05:26:49;;;;;;;14.65;7.90;;;;;;;;;;4927651;29;20207;-64
2022/06/30 05:29:15;;;;;;;12.88;6.53;;;;;;;;;;4957157;29;20270;-63
2022/06/30 05:31:41;;;;;;;8.10;3.60;;;;;;;;;;4940377;29;20242;-65
2022/06/30 05:34:07;;;;;;;11.57;4.95;;;;;;;;;;4957147;29;20650;-66
2022/06/30 05:36:34;;;;;;;7.63;3.70;;;;;;;;;;4955406;28;20193;-66
2022/06/30 05:39:00;;;;;;;11.32;3.10;;;;;;;;;;4957176;29;20191;-66
2022/06/30 05:41:26;;;;;;;13.18;4.70;;;;;;;;;;4955407;28;20553;-65
2022/06/30 05:43:52;;;;;;;8.73;3.67;;;;;;;;;;4954023;29;20193;-66
2022/06/30 05:46:19;;;;;;;9.07;3.22;;;;;;;;;;4957421;29;20183;-66
2022/06/30 05:48:45;;;;;;;12.73;4.07;;;;;;;;;;4940153;29;20642;-65
2022/06/30 05:51:11;;;;;;;11.13;3.85;;;;;;;;;;4956843;29;20710;-67
2022/06/30 05:53:38;;;;;;;8.55;3.75;;;;;;;;;;4937571;28;20568;-65
2022/06/30 05:56:04;;;;;;;12.10;4.78;;;;;;;;;;4956115;29;20183;-67
2022/06/30 05:58:30;;;;;;;8.23;4.00;;;;;;;;;;4956599;29;20291;-67
2022/06/30 06:00:57;;;;;;;10.40;3.70;;;;;;;;;;4957275;29;20221;-67
2022/06/30 06:03:23;;;;;;;7.25;3.90;;;;;;;;;;4955538;28;20662;-67
2022/06/30 06:05:49;;;;;;;10.85;3.67;;;;;;;;;;4957005;29;20705;-67
2022/06/30 06:08:15;;;;;;;9.20;3.42;;;;;;;;;;4955202;28;20354;-67
2022/06/30 06:10:41;;;;;;;13.38;3.80;;;;;;;;;;4956967;29;20261;-68
2022/06/30 06:13:09;;;;;;;7.75;3.47;;;;;;;;;;4954701;28;20293;-67
2022/06/30 06:15:35;;;;;;;9.75;2.90;;;;;;;;;;4939265;29;20179;-67
2022/06/30 06:18:01;;;;;;;8.07;3.08;;;;;;;;;;4939729;29;20234;-68
2022/06/30 06:20:27;;;;;;;8.75;2.90;;;;;;;;;;4956692;29;20186;-66
2022/06/30 06:22:54;;;;;;;14.32;3.42;;;;;;;;;;4937284;28;20642;-66
2022/06/30 06:25:20;;;;;;;10.52;2.67;;;;;;;;;;4925823;29;20211;-65
2022/06/30 06:29:05;;;;;;;13.93;3.22;;;;;;;;;;4920486;29;20183;-66
2022/06/30 06:30:32;;;;;;;9.70;2.40;;;;;;;;;;4938215;29;20677;-67
2022/06/30 06:32:58;;;;;;;9.75;2.90;;;;;;;;;;4956810;29;20265;-66
2022/06/30 06:35:24;;;;;;;12.00;3.13;;;;;;;;;;4955901;29;20273;-64
2022/06/30 06:37:51;;;;;;;12.38;3.10;;;;;;;;;;4956437;29;20647;-61
2022/06/30 06:40:17;;;;;;;7.57;2.42;;;;;;;;;;4955270;28;20243;-62
2022/06/30 06:42:43;;;;;;;10.80;2.45;;;;;;;;;;4956633;29;20185;-62
2022/06/30 06:45:10;;;;;;;7.07;2.65;;;;;;;;;;4939480;29;20191;-61
2022/06/30 06:47:36;;;;;;;8.35;3.35;;;;;;;;;;4956569;28;20221;-61
2022/06/30 06:50:03;;;;;;;8.32;2.40;;;;;;;;;;4953140;29;20171;-60
2022/06/30 06:52:29;;;;;;;13.98;2.40;;;;;;;;;;4938220;29;20195;-61
2022/06/30 06:54:55;;;;;;;13.13;2.58;;;;;;;;;;4955730;29;20183;-61
2022/06/30 06:57:21;;;;;;;6.53;1.92;;;;;;;;;;4956092;29;20183;-66
2022/06/30 06:59:47;;;;;;;6.38;2.40;;;;;;;;;;4923043;29;20189;-68
2022/06/30 07:02:13;;;;;;;8.73;2.40;;;;;;;;;;4954069;28;20191;-67
2022/06/30 07:04:40;;;;;;;5.82;2.03;;;;;;;;;;4955307;29;20209;-67
2022/06/30 07:07:06;;;;;;;10.43;2.45;;;;;;;;;;4955577;28;20186;-66
2022/06/30 07:09:32;;;;;;;6.43;2.58;;;;;;;;;;4953956;28;20318;-67
2022/06/30 07:11:58;;;;;;;9.07;2.72;;;;;;;;;;4954926;28;20253;-67
2022/06/30 07:14:24;;;;;;;7.75;2.50;;;;;;;;;;4955838;29;20201;-65
2022/06/30 07:16:50;;;;;;;8.25;2.53;;;;;;;;;;4955921;29;20179;-66
2022/06/30 07:19:16;;;;;;;9.57;2.58;;;;;;;;;;4955877;29;20261;-65
2022/06/30 07:21:43;;;;;;;4.78;2.35;;;;;;;;;;4953910;28;20226;-65
2022/06/30 07:24:09;;;;;;;4.38;2.10;;;;;;;;;;4954719;28;20197;-67
2022/06/30 07:26:35;;;;;;;9.48;2.72;;;;;;;;;;4938348;29;20197;-64
2022/06/30 07:29:01;;;;;;;8.43;1.88;;;;;;;;;;4955529;29;20183;-64
2022/06/30 07:31:27;;;;;;;6.80;2.00;;;;;;;;;;4935239;29;20297;-65
2022/06/30 07:33:53;;;;;;;8.82;2.08;;;;;;;;;;4955029;29;20289;-65
2022/06/30 07:36:20;;;;;;;11.40;2.17;;;;;;;;;;4938274;29;20570;-66
2022/06/30 07:38:47;;;;;;;7.30;2.05;;;;;;;;;;4955177;29;20265;-67
2022/06/30 07:41:13;;;;;;;4.50;2.15;;;;;;;;;;4937495;29;20190;-67
2022/06/30 07:43:39;;;;;;;6.45;2.10;;;;;;;;;;4954987;29;20194;-68
2022/06/30 07:46:07;;;;;;;3.97;1.70;;;;;;;;;;4955415;29;20174;-68
2022/06/30 07:48:33;;;;;;;7.60;2.13;;;;;;;;;;4938199;29;20513;-65
2022/06/30 07:50:59;;;;;;;6.30;1.95;;;;;;;;;;4953843;28;20205;-67
2022/06/30 07:53:25;;;;;;;7.35;1.80;;;;;;;;;;4937922;29;20247;-67
2022/06/30 07:55:51;;;;;;;5.88;1.88;;;;;;;;;;4954467;29;20746;-66
2022/06/30 07:58:17;;;;;;;8.00;2.38;;;;;;;;;;4937895;29;20658;-66
2022/06/30 08:00:44;;;;;;;4.80;2.08;;;;;;;;;;4954353;28;20654;-66
2022/06/30 08:03:10;;;;;;;5.78;1.70;;;;;;;;;;4954342;29;20182;-65
2022/06/30 08:05:36;;;;;;;5.22;1.70;;;;;;;;;;4937678;29;20665;-66
2022/06/30 08:08:02;;;;;;;5.00;2.03;;;;;;;;;;4953719;28;20312;-66
2022/06/30 08:10:28;;;;;;;3.53;1.77;;;;;;;;;;4938063;29;20233;-66
2022/06/30 08:12:55;;;;;;;3.25;1.65;;;;;;;;;;4954915;29;20666;-66
2022/06/30 08:15:21;;;;;;;5.95;1.90;;;;;;;;;;4937435;29;20552;-66
2022/06/30 08:17:47;;;;;;;6.50;2.20;;;;;;;;;;4952258;28;20246;-66
2022/06/30 08:20:13;;;;;;;5.85;2.20;;;;;;;;;;4954789;29;20182;-65
2022/06/30 08:22:39;;;;;;;5.40;1.67;;;;;;;;;;4937997;29;20208;-66
2022/06/30 08:25:06;;;;;;;3.83;1.60;;;;;;;;;;4937696;29;20183;-65
2022/06/30 08:27:32;;;;;;;4.97;1.50;;;;;;;;;;4936939;29;20187;-65
2022/06/30 08:29:58;;;;;;;3.88;1.40;;;;;;;;;;4937943;29;20190;-65
2022/06/30 08:32:24;;;;;;;3.28;1.33;;;;;;;;;;4954765;29;20189;-65
2022/06/30 08:34:50;;;;;;;6.00;1.80;;;;;;;;;;4954120;29;20665;-65
2022/06/30 08:37:16;;;;;;;3.30;1.40;;;;;;;;;;4954776;29;20539;-65
2022/06/30 08:42:27;;;;;;;4.72;1.75;;;;;;;;;;4935896;29;20251;-66
2022/06/30 08:47:38;;;;;;;7.43;1.90;;;;;;;;;;4953146;28;20201;-65
2022/06/30 08:50:11;;;;;;;4.72;1.75;;;;;;;;;;4954531;29;20673;-66
2022/06/30 08:52:45;;;;;;;5.07;1.73;;;;;;;;;;4954825;29;20705;-65
2022/06/30 08:55:13;;;;;;;6.85;1.55;;;;;;;;;;4954296;29;20550;-66
2022/06/30 08:57:41;;;;;;;8.32;1.70;;;;;;;;;;4953397;28;20182;-66
2022/06/30 09:00:07;;;;;;;8.02;1.83;;;;;;;;;;4954357;29;20258;-65
2022/06/30 09:02:33;;;;;;;7.97;1.38;;;;;;;;;;4954176;29;20187;-66
2022/06/30 09:04:59;;;;;;;7.03;1.20;;;;;;;;;;4937578;29;20186;-65
2022/06/30 09:07:25;;;;;;;8.13;1.20;;;;;;;;;;4954318;29;20285;-65
2022/06/30 09:09:52;;;;;;;4.15;1.10;;;;;;;;;;4933657;29;20239;-66
2022/06/30 09:12:19;;;;;;;3.33;1.67;;;;;;;;;;4934842;29;20218;-66
2022/06/30 09:14:49;;;;;;;4.82;1.60;;;;;;;;;;4933043;29;20188;-66
2022/06/30 09:17:19;;;;;;;3.88;1.20;;;;;;;;;;4934210;29;20195;-66
2022/06/30 09:19:51;;;;;;;4.10;1.15;;;;;;;;;;4935172;29;20192;-65
2022/06/30 09:22:17;;;;;;;3.05;1.08;;;;;;;;;;4935284;29;20184;-65
2022/06/30 09:24:43;;;;;;;2.78;0.90;;;;;;;;;;4934340;29;20238;-65
2022/06/30 09:27:16;;;;;;;2.47;1.10;;;;;;;;;;4935035;29;20186;-65
2022/06/30 09:29:46;;;;;;;4.90;1.08;;;;;;;;;;4935797;29;20643;-66
2022/06/30 09:32:12;;;;;;;4.95;1.20;;;;;;;;;;4938369;29;20282;-65
2022/06/30 09:34:40;;;;;;;4.03;1.10;;;;;;;;;;4937212;29;20580;-66
2022/06/30 09:37:15;;;;;;;4.55;1.23;;;;;;;;;;4938400;29;20180;-65
2022/06/30 09:39:44;;;;;;;2.05;1.38;;;;;;;;;;4938361;29;20186;-65
2022/06/30 09:42:10;;;;;;;4.93;1.30;;;;;;;;;;4938329;29;20171;-64
2022/06/30 09:44:37;;;;;;;6.38;1.13;;;;;;;;;;4935481;29;20214;-66
2022/06/30 09:47:10;;;;;;;4.35;1.23;;;;;;;;;;4938853;29;20183;-66
2022/06/30 09:49:41;;;;;;;8.93;1.00;;;;;;;;;;4938175;29;20183;-66
2022/06/30 09:52:20;;;;;;;2.20;0.70;;;;;;;;;;4938002;29;20231;-65
2022/06/30 09:55:00;;;;;;;2.95;1.15;;;;;;;;;;4937010;29;20192;-65
2022/06/30 09:57:30;;;;;;;3.15;0.90;;;;;;;;;;4937966;29;20270;-66
2022/06/30 10:00:13;;;;;;;4.00;0.90;;;;;;;;;;4938079;29;20249;-66
2022/06/30 10:02:41;;;;;;;2.78;1.10;;;;;;;;;;4936782;29;20590;-66
2022/06/30 10:05:08;;;;;;;4.78;1.10;;;;;;;;;;4937543;29;20253;-66
2022/06/30 10:07:35;;;;;;;2.55;0.95;;;;;;;;;;4937515;29;20197;-64
2022/06/30 10:10:04;;;;;;;1.60;0.90;;;;;;;;;;4956889;29;20266;-66
2022/06/30 10:12:30;;;;;;;3.30;0.90;;;;;;;;;;4956241;28;20194;-65
2022/06/30 10:14:57;;;;;;;3.78;1.00;;;;;;;;;;4956420;29;20645;-66
2022/06/30 10:17:34;;;;;;;4.90;1.08;;;;;;;;;;4940175;29;20210;-67
2022/06/30 10:20:00;;;;;;;5.13;1.13;;;;;;;;;;4957155;29;20182;-66
2022/06/30 10:22:27;;;;;;;4.63;0.93;;;;;;;;;;4956180;29;20237;-65
2022/06/30 10:24:54;;;;;;;3.00;1.10;;;;;;;;;;4955948;28;20249;-66
2022/06/30 10:27:22;;;;;;;3.92;1.50;;;;;;;;;;4955239;28;20193;-65
2022/06/30 10:29:59;;;;;;;3.20;0.95;;;;;;;;;;4956970;29;20526;-66
2022/06/30 10:32:35;;;;;;;6.18;1.08;;;;;;;;;;4956648;29;20215;-67
2022/06/30 10:35:11;;;;;;;4.93;1.08;;;;;;;;;;4954143;28;20273;-67
2022/06/30 10:37:42;;;;;;;2.75;0.98;;;;;;;;;;4956741;29;20190;-65
2022/06/30 10:40:13;;;;;;;4.30;1.02;;;;;;;;;;4955731;28;20182;-67
2022/06/30 10:42:49;;;;;;;2.72;1.13;;;;;;;;;;4956173;29;20621;-66
2022/06/30 10:45:31;;;;;;;2.92;0.98;;;;;;;;;;4954756;28;20188;-66
2022/06/30 10:47:58;;;;;;;3.03;1.08;;;;;;;;;;4956381;29;20536;-66
2022/06/30 10:50:31;;;;;;;5.75;1.20;;;;;;;;;;4955575;29;20210;-66
2022/06/30 10:52:58;;;;;;;3.00;1.20;;;;;;;;;;4955994;29;20183;-65
2022/06/30 10:55:24;;;;;;;1.98;0.90;;;;;;;;;;4954586;28;20178;-67
2022/06/30 10:58:00;;;;;;;2.97;1.38;;;;;;;;;;4955237;28;20245;-66
2022/06/30 11:00:45;;;;;;;4.57;1.02;;;;;;;;;;4955390;29;20279;-64
2022/06/30 11:03:34;;;;;;;4.75;1.88;;;;;;;;;;4946323;28;20224;-64
2022/06/30 11:06:05;;;;;;;4.55;1.20;;;;;;;;;;4955729;28;20649;-66
2022/06/30 11:08:48;;;;;;;8.38;1.88;;;;;;;;;;4956053;29;20253;-66
2022/06/30 11:11:23;;;;;;;4.85;1.50;;;;;;;;;;4955643;29;20230;-62
2022/06/30 11:13:51;;;;;;;10.35;1.13;;;;;;;;;;4954189;28;20635;-66
2022/06/30 11:16:19;;;;;;;8.68;1.70;;;;;;;;;;4955956;29;20182;-65
2022/06/30 11:18:46;;;;;;;4.25;1.70;;;;;;;;;;4955127;29;20189;-67
2022/06/30 11:21:12;;;;;;;4.72;1.10;;;;;;;;;;4943452;29;20703;-65
2022/06/30 11:23:45;;;;;;;4.68;1.13;;;;;;;;;;4952284;28;20186;-66
2022/06/30 11:28:57;;;;;;;6.93;1.33;;;;;;;;;;4955487;29;20601;-68
2022/06/30 11:31:31;;;;;;;4.28;1.45;;;;;;;;;;4938200;29;20221;-67
2022/06/30 11:34:02;;;;;;;4.82;1.25;;;;;;;;;;4953105;28;20221;-67
2022/06/30 11:36:28;;;;;;;3.38;1.33;;;;;;;;;;4955415;29;20187;-66
2022/06/30 11:38:56;;;;;;;5.50;1.55;;;;;;;;;;4954663;29;20258;-66
2022/06/30 11:44:08;;;;;;;5.00;1.60;;;;;;;;;;4948493;28;20194;-66
2022/06/30 11:46:55;;;;;;;11.05;1.77;;;;;;;;;;4954828;28;20266;-66
2022/06/30 11:49:21;;;;;;;4.38;1.50;;;;;;;;;;4955557;29;20261;-68
2022/06/30 11:51:48;;;;;;;3.30;1.50;;;;;;;;;;4938357;28;20206;-66
2022/06/30 11:54:16;;;;;;;5.00;1.27;;;;;;;;;;4954105;29;20189;-67
2022/06/30 11:56:45;;;;;;;7.05;1.70;;;;;;;;;;4954704;29;20694;-66
2022/06/30 11:59:11;;;;;;;4.53;1.67;;;;;;;;;;4953885;29;20237;-67
2022/06/30 12:01:37;;;;;;;6.30;1.70;;;;;;;;;;4954913;29;20261;-67
2022/06/30 12:04:16;;;;;;;6.90;1.42;;;;;;;;;;4952976;28;20215;-68
2022/06/30 12:06:42;;;;;;;9.50;1.67;;;;;;;;;;4954363;28;20193;-66
2022/06/30 12:09:09;;;;;;;3.53;1.40;;;;;;;;;;4954669;29;20634;-66
2022/06/30 12:11:37;;;;;;;4.20;2.20;;;;;;;;;;4937811;29;20218;-66
2022/06/30 12:14:03;;;;;;;4.55;1.45;;;;;;;;;;4953991;28;20672;-66
2022/06/30 12:16:30;;;;;;;6.05;1.58;;;;;;;;;;4954632;29;20210;-68
2022/06/30 12:18:56;;;;;;;5.30;1.60;;;;;;;;;;4955011;29;20175;-66
2022/06/30 12:21:22;;;;;;;7.85;1.80;;;;;;;;;;4954732;29;20190;-66
2022/06/30 12:23:48;;;;;;;4.30;1.60;;;;;;;;;;4953309;28;20191;-65
2022/06/30 12:26:15;;;;;;;6.82;2.05;;;;;;;;;;4954562;29;20693;-66
2022/06/30 12:28:59;;;;;;;8.23;1.80;;;;;;;;;;4953200;28;20194;-66
2022/06/30 12:31:29;;;;;;;6.05;1.70;;;;;;;;;;4954005;29;20217;-65
2022/06/30 12:33:57;;;;;;;5.07;1.60;;;;;;;;;;4953985;29;20710;-66
2022/06/30 12:36:24;;;;;;;4.18;1.58;;;;;;;;;;4954641;29;20242;-66
2022/06/30 12:38:50;;;;;;;5.45;1.60;;;;;;;;;;4953852;28;20336;-66
2022/06/30 12:41:16;;;;;;;8.48;1.55;;;;;;;;;;4954570;29;20193;-67
2022/06/30 12:43:47;;;;;;;3.70;1.25;;;;;;;;;;4954648;29;20241;-68
2022/06/30 12:46:14;;;;;;;4.50;1.60;;;;;;;;;;4954544;29;20185;-66
2022/06/30 12:48:42;;;;;;;8.02;1.75;;;;;;;;;;4920447;29;20643;-65
2022/06/30 12:51:10;;;;;;;4.68;1.60;;;;;;;;;;4954292;29;20285;-66
2022/06/30 12:53:38;;;;;;;4.35;1.33;;;;;;;;;;4954661;29;20194;-66
2022/06/30 12:56:04;;;;;;;6.40;1.27;;;;;;;;;;4937363;29;20201;-67
2022/06/30 12:59:02;;;;;;;4.57;1.25;;;;;;;;;;4952603;28;20186;-67
2022/06/30 13:01:29;;;;;;;6.07;1.30;;;;;;;;;;4922239;29;20663;-67
2022/06/30 13:03:57;;;;;;;5.47;1.25;;;;;;;;;;4937580;29;20191;-67
2022/06/30 13:06:24;;;;;;;7.13;1.30;;;;;;;;;;4940858;29;20277;-66
2022/06/30 13:08:50;;;;;;;3.33;1.27;;;;;;;;;;4956664;28;20227;-66
2022/06/30 13:11:17;;;;;;;3.60;1.10;;;;;;;;;;4940674;29;20207;-66
2022/06/30 13:13:45;;;;;;;2.20;0.98;;;;;;;;;;4940716;29;20653;-66
2022/06/30 13:16:11;;;;;;;5.32;1.52;;;;;;;;;;4955539;28;20225;-66
2022/06/30 13:18:37;;;;;;;3.70;1.25;;;;;;;;;;4956696;29;20218;-67
2022/06/30 13:21:03;;;;;;;3.20;1.30;;;;;;;;;;4942733;29;20195;-66
2022/06/30 13:23:29;;;;;;;3.78;1.50;;;;;;;;;;4957774;29;20192;-66
2022/06/30 13:25:55;;;;;;;3.53;1.48;;;;;;;;;;4957438;29;20194;-67
2022/06/30 13:28:21;;;;;;;3.70;1.27;;;;;;;;;;4956943;28;20189;-66
2022/06/30 13:30:48;;;;;;;3.20;1.13;;;;;;;;;;4957542;29;20666;-67
2022/06/30 13:33:14;;;;;;;2.72;1.10;;;;;;;;;;4957339;29;20791;-64
2022/06/30 13:35:40;;;;;;;3.88;1.20;;;;;;;;;;4957049;29;20700;-66
2022/06/30 13:38:06;;;;;;;3.40;1.45;;;;;;;;;;4957558;29;20175;-65
2022/06/30 13:40:35;;;;;;;3.50;1.00;;;;;;;;;;4955448;28;20194;-66
2022/06/30 13:43:01;;;;;;;3.67;1.13;;;;;;;;;;4956805;29;20237;-67
2022/06/30 13:45:27;;;;;;;3.90;1.30;;;;;;;;;;4957151;29;20190;-67
2022/06/30 13:47:54;;;;;;;4.50;1.30;;;;;;;;;;4957288;29;20206;-65
2022/06/30 13:50:20;;;;;;;4.32;1.30;;;;;;;;;;4954488;28;20214;-66
2022/06/30 13:52:46;;;;;;;4.00;1.10;;;;;;;;;;4957128;29;20195;-68
2022/06/30 13:55:12;;;;;;;4.72;1.40;;;;;;;;;;4957087;29;20337;-67
2022/06/30 13:57:38;;;;;;;2.40;1.30;;;;;;;;;;4957075;29;20190;-67
2022/06/30 14:00:05;;;;;;;2.58;1.02;;;;;;;;;;4938271;29;20274;-67
2022/06/30 14:02:34;;;;;;;2.58;1.10;;;;;;;;;;4957272;29;20273;-68
2022/06/30 14:05:00;;;;;;;2.67;1.17;;;;;;;;;;4956560;29;20666;-69
2022/06/30 14:07:26;;;;;;;2.55;1.08;;;;;;;;;;4940812;29;20662;-67
2022/06/30 14:09:53;;;;;;;4.47;1.23;;;;;;;;;;4955000;28;20226;-67
2022/06/30 14:12:20;;;;;;;4.25;1.80;;;;;;;;;;4956938;29;20267;-66
2022/06/30 14:14:46;;;;;;;3.22;1.50;;;;;;;;;;4955921;28;20587;-67
2022/06/30 14:17:12;;;;;;;4.70;1.50;;;;;;;;;;4938748;29;20186;-67
2022/06/30 14:19:38;;;;;;;2.38;1.08;;;;;;;;;;4955389;28;20629;-67
2022/06/30 14:22:04;;;;;;;4.90;1.20;;;;;;;;;;4954983;28;20546;-67
2022/06/30 14:24:31;;;;;;;4.22;1.17;;;;;;;;;;4955850;28;20194;-68
2022/06/30 14:26:57;;;;;;;2.75;1.10;;;;;;;;;;4956376;29;20191;-68
2022/06/30 14:29:24;;;;;;;3.20;1.20;;;;;;;;;;4956658;29;20193;-69
2022/06/30 14:31:50;;;;;;;3.88;1.27;;;;;;;;;;4956355;29;20250;-68
2022/06/30 14:34:16;;;;;;;3.97;1.40;;;;;;;;;;4936755;28;20186;-66
2022/06/30 14:36:42;;;;;;;6.30;1.35;;;;;;;;;;4955647;28;20281;-69
2022/06/30 14:39:08;;;;;;;4.43;1.95;;;;;;;;;;4956639;29;20678;-65
2022/06/30 14:44:20;;;;;;;4.30;1.20;;;;;;;;;;4936441;29;20184;-67
2022/06/30 14:46:46;;;;;;;2.70;1.00;;;;;;;;;;4935601;28;20186;-67
2022/06/30 14:49:12;;;;;;;4.53;1.10;;;;;;;;;;4955382;28;20198;-67
2022/06/30 14:51:38;;;;;;;1.50;1.00;;;;;;;;;;4938163;29;20749;-67
2022/06/30 14:54:04;;;;;;;2.90;1.30;;;;;;;;;;4956244;29;20194;-67
2022/06/30 14:56:30;;;;;;;3.97;1.08;;;;;;;;;;4954456;28;20193;-67